메인 페이지
METAR-TAF:

METAR-TAF

공항 :

Mayagüez, 푸에르토리코, 미국

위도: 18-16N, 경도: 067-09W, 고도: 9m

METAR: 누락

시각: 06:33 (10:33 UTC)

예보

예보는 4 시간 28분 전, 06:05시(UTC)에 발표되었습니다.
예보 대상 시간: 18일 06시부터 19일 06시까지 (UTC)
북동3kt
시정: 10km
맑음
18일 0900시부터 (UTC)
여러 방향의 바람 4kt
시정: 10km
고도 3500ft 상공 구름 조금
18일 1430시부터 (UTC)
동북동14kt
시정: 10km
고도 2600ft 상공 구름 조금
고도 4000ft 상공 구름 보통
18일 1700시부터 (UTC)
16kt
시정: 10km
고도 2500ft 상공 구름 보통
고도 5000ft 상공 구름 보통
시계 내 소나기
18일 2300시부터 (UTC)
동북동10kt
시정: 10km
고도 3500ft 상공 구름 조금
고도 6000ft 상공 구름 조금

TAF: TJMZ 180605Z 1806/1906 05003KT P6SM SKC FM180900 VRB04KT P6SM FEW035 FM181430 06014KT P6SM FEW026 SCT040 FM181700 08016KT P6SM VCSH SCT025 SCT050 FM182300 07010KT P6SM FEW035 FEW060 AMD NOT SKED

4,000개 이상의 공항 관측 자료 및 예보 (METAR 및 TAF 보고).

지도상에서 검색 가능한 기상관측소가 노란 점과 빨간 점으로 표시되어 있습니다.

기상관측소 명을 보려면 표시 위로 마우스를 이동하세요.

날씨 관측과 예보를 보려면 클릭하세요.

지도 변경 : 확대하려면 엑스 표시가 있는 녹색 버튼, 축소하려면 빼기 표시가 있는 녹색 버튼, 다음 페이지의 지도를 보려면 녹색 화살표를 클릭하세요.


METAR-TAF: